Time;durP1;ratioP1;P1;durP2;ratioP2;P2;SDS_P1;SDS_P2;PMS_P1;PMS_P2;Temp;Humidity;BMP_temperature;BMP_pressure;BME280_temperature;BME280_humidity;BME280_pressure;Samples;Min_cycle;Max_cycle;Signal;HPM_P1;HPM_P2
2023/07/08 00:02:25;;;;;;;;;;;17.20;99.90;;;;;;5032296;28;20055;-75
2023/07/08 00:05:48;;;;;;;;;;;17.20;99.90;;;;;;4937992;28;19926;-75
2023/07/08 00:08:58;;;;;;;;;;;17.10;99.90;;;;;;5008885;28;20884;-76
2023/07/08 00:11:58;;;;;;;;;;;17.10;99.90;;;;;;5007248;28;19925;-76
2023/07/08 00:15:28;;;;;;;;;;;17.10;99.90;;;;;;5009835;28;19959;-77
2023/07/08 00:18:15;;;;;;;;;;;17.00;99.90;;;;;;4996041;28;19925;-78
2023/07/08 00:24:38;;;;;;;;;;;17.00;99.90;;;;;;5013468;28;19984;-76
2023/07/08 00:27:30;;;;;;;;;;;16.50;99.90;;;;;;5012231;28;19960;-77
2023/07/08 00:34:03;;;;;;;;;;;15.50;99.90;;;;;;5010308;28;19951;-77
2023/07/08 00:36:51;;;;;;;;;;;16.80;99.90;;;;;;5017255;28;19929;-76
2023/07/08 00:39:57;;;;;;;;;;;16.80;99.90;;;;;;5004548;28;19999;-75
2023/07/08 00:43:24;;;;;;;;;;;16.70;99.90;;;;;;5031942;28;20375;-75
2023/07/08 00:53:06;;;;;;;;;;;16.60;99.90;;;;;;4993114;28;19971;-80
2023/07/08 00:56:23;;;;;;;;;;;16.60;99.90;;;;;;4976562;28;19929;-75
2023/07/08 01:02:55;;;;;;;;;;;15.30;99.90;;;;;;4992845;28;19925;-76
2023/07/08 01:05:40;;;;;;;;;;;16.50;99.90;;;;;;4992209;28;19925;-79
2023/07/08 01:09:10;;;;;;;;;;;16.40;99.90;;;;;;4992530;28;19964;-77
2023/07/08 01:11:46;;;;;;;;;;;16.40;99.90;;;;;;4988343;28;19925;-78
2023/07/08 01:15:10;;;;;;;;;;;16.40;99.90;;;;;;4991814;28;19920;-77
2023/07/08 01:28:21;;;;;;;;;;;16.30;99.90;;;;;;4991005;28;20085;-76
2023/07/08 01:35:08;;;;;;;;;;;16.30;99.90;;;;;;4973865;28;20009;-77
2023/07/08 01:38:34;;;;;;;;;;;16.30;99.90;;;;;;4970872;28;20109;-79
2023/07/08 01:47:42;;;;;;;;;;;16.30;99.90;;;;;;4957887;28;20013;-78
2023/07/08 01:51:23;;;;;;;;;;;;;;;;;;;;;
2023/07/08 01:54:16;;;;;;;;;;;16.30;99.90;;;;;;4973417;28;19925;-75
2023/07/08 02:03:49;;;;;;;;;;;16.20;99.90;;;;;;4971524;28;19936;-76
2023/07/08 02:06:16;;;;;;;;;;;16.30;99.90;;;;;;4970209;28;20016;-76
2023/07/08 02:12:37;;;;;;;;;;;16.30;99.90;;;;;;4918361;29;19926;-75
2023/07/08 02:15:51;;;;;;;;;;;16.30;99.90;;;;;;4921231;29;20148;-79
2023/07/08 02:19:03;;;;;;;;;;;16.30;99.90;;;;;;4925144;29;19956;-77
2023/07/08 02:21:56;;;;;;;;;;;16.20;99.90;;;;;;4915391;29;19930;-76
2023/07/08 02:24:41;;;;;;;;;;;16.20;99.90;;;;;;4920533;29;19974;-77
2023/07/08 02:31:01;;;;;;;;;;;16.10;99.90;;;;;;4981049;28;19932;-76
2023/07/08 02:34:23;;;;;;;;;;;16.70;99.90;;;;;;4981886;28;19941;-77
2023/07/08 02:37:23;;;;;;;;;;;16.20;99.90;;;;;;4993986;28;19970;-76
2023/07/08 02:46:51;;;;;;;;;;;16.20;99.90;;;;;;5011751;28;20011;-79
2023/07/08 02:50:16;;;;;;;;;;;16.20;99.90;;;;;;4996692;28;20121;-80
2023/07/08 02:53:16;;;;;;;;;;;16.10;99.90;;;;;;5022444;28;20047;-80
2023/07/08 02:56:09;;;;;;;;;;;16.10;99.90;;;;;;5024001;28;19929;-78
2023/07/08 02:59:47;;;;;;;;;;;16.10;99.90;;;;;;5020860;28;19959;-80
2023/07/08 03:09:13;;;;;;;;;;;14.70;99.90;;;;;;5022059;28;19927;-77
2023/07/08 03:12:40;;;;;;;;;;;15.80;99.90;;;;;;4922777;28;19941;-79
2023/07/08 03:15:44;;;;;;;;;;;15.80;99.90;;;;;;4930362;28;19926;-79
2023/07/08 03:18:38;;;;;;;;;;;15.80;99.90;;;;;;4941339;28;19972;-79
2023/07/08 03:21:23;;;;;;;;;;;15.70;99.90;;;;;;4928469;28;20008;-77
2023/07/08 03:24:18;;;;;;;;;;;15.70;99.90;;;;;;4929412;28;20016;-78
2023/07/08 03:27:51;;;;;;;;;;;15.70;99.90;;;;;;4940520;28;19981;-81
2023/07/08 03:33:54;;;;;;;;;;;15.70;99.90;;;;;;4943301;28;20727;-79
2023/07/08 03:37:15;;;;;;;;;;;15.70;99.90;;;;;;4937553;28;19926;-78
2023/07/08 03:39:50;;;;;;;;;;;15.60;99.90;;;;;;4941957;28;20384;-75
2023/07/08 03:42:59;;;;;;;;;;;15.60;99.90;;;;;;4972983;28;20435;-78
2023/07/08 03:45:49;;;;;;;;;;;15.70;99.90;;;;;;5032573;28;19932;-78
2023/07/08 03:48:53;;;;;;;;;;;15.70;99.90;;;;;;5021201;28;19932;-79
2023/07/08 03:52:09;;;;;;;;;;;15.70;99.90;;;;;;5026829;28;19970;-76
2023/07/08 03:54:56;;;;;;;;;;;15.70;99.90;;;;;;5000395;28;19939;-78
2023/07/08 03:57:48;;;;;;;;;;;15.70;99.90;;;;;;5026591;28;19925;-76
2023/07/08 04:06:56;;;;;;;;;;;15.80;99.90;;;;;;5023962;28;20051;-79
2023/07/08 04:10:04;;;;;;;;;;;15.50;99.90;;;;;;5007155;28;20499;-77
2023/07/08 04:12:49;;;;;;;;;;;15.80;99.90;;;;;;4996725;28;19929;-77
2023/07/08 04:22:24;;;;;;;;;;;16.00;99.90;;;;;;5026392;28;20896;-79
2023/07/08 04:25:15;;;;;;;;;;;16.00;99.90;;;;;;5004871;28;19943;-75
2023/07/08 04:28:19;;;;;;;;;;;16.00;99.90;;;;;;5025215;28;20062;-78
2023/07/08 04:31:22;;;;;;;;;;;16.00;99.90;;;;;;5026177;28;19931;-76
2023/07/08 04:37:24;;;;;;;;;;;16.10;99.90;;;;;;5024918;28;19925;-79
2023/07/08 04:40:10;;;;;;;;;;;16.20;99.90;;;;;;5025605;28;19979;-76
2023/07/08 04:46:26;;;;;;;;;;;16.30;99.90;;;;;;4992880;28;19963;-79
2023/07/08 04:49:34;;;;;;;;;;;16.30;99.90;;;;;;4997090;28;19936;-76
2023/07/08 04:52:01;;;;;;;;;;;16.30;99.90;;;;;;5025006;28;19924;-74
2023/07/08 04:54:40;;;;;;;;;;;16.40;99.90;;;;;;5008401;28;19932;-72
2023/07/08 04:57:09;;;;;;;;;;;16.50;99.90;;;;;;5001081;28;20442;-71
2023/07/08 04:59:35;;;;;;;;;;;16.50;99.90;;;;;;5010557;28;19928;-73
2023/07/08 05:02:01;;;;;;;;;;;16.60;99.90;;;;;;4991669;28;20382;-72
2023/07/08 05:04:45;;;;;;;;;;;16.60;99.90;;;;;;5023879;28;19923;-71
2023/07/08 05:07:11;;;;;;;;;;;16.70;99.90;;;;;;5006420;28;19983;-73
2023/07/08 05:09:47;;;;;;;;;;;16.80;99.90;;;;;;4992235;28;19925;-73
2023/07/08 05:12:17;;;;;;;;;;;16.80;99.90;;;;;;5007352;28;19936;-71
2023/07/08 05:14:42;;;;;;;;;;;16.90;99.90;;;;;;4975184;28;19921;-71
2023/07/08 05:17:08;;;;;;;;;;;17.00;99.90;;;;;;4995281;28;19935;-72
2023/07/08 05:19:37;;;;;;;;;;;17.10;99.90;;;;;;5007248;28;19929;-72
2023/07/08 05:22:25;;;;;;;;;;;17.10;99.90;;;;;;4948785;28;19929;-73
2023/07/08 05:24:56;;;;;;;;;;;17.20;99.90;;;;;;4938232;28;19922;-74
2023/07/08 05:27:38;;;;;;;;;;;17.30;99.90;;;;;;4964583;28;19930;-75
2023/07/08 05:30:24;;;;;;;;;;;17.40;99.90;;;;;;4964677;28;20020;-73
2023/07/08 05:32:56;;;;;;;;;;;17.50;99.90;;;;;;4967629;28;19941;-72
2023/07/08 05:35:25;;;;;;;;;;;17.60;99.90;;;;;;4965231;28;19996;-73
2023/07/08 05:37:58;;;;;;;;;;;17.70;99.90;;;;;;4943376;28;19933;-75
2023/07/08 05:40:28;;;;;;;;;;;17.80;99.90;;;;;;4930844;28;20048;-74
2023/07/08 05:46:20;;;;;;;;;;;18.00;99.90;;;;;;4965434;28;20296;-74
2023/07/08 05:49:29;;;;;;;;;;;19.00;99.90;;;;;;4966260;28;19936;-78
2023/07/08 05:52:22;;;;;;;;;;;18.30;99.90;;;;;;4931395;28;19929;-72
2023/07/08 05:54:56;;;;;;;;;;;18.40;99.90;;;;;;5006888;28;19924;-71
2023/07/08 05:57:25;;;;;;;;;;;18.50;99.90;;;;;;5022020;28;19924;-71
2023/07/08 06:00:00;;;;;;;;;;;18.70;99.90;;;;;;5004562;28;20010;-71
2023/07/08 06:02:26;;;;;;;;;;;18.90;99.90;;;;;;5007817;28;19971;-72
2023/07/08 06:04:56;;;;;;;;;;;19.00;99.90;;;;;;5024084;28;19971;-74
2023/07/08 06:07:28;;;;;;;;;;;19.20;99.90;;;;;;5006295;28;19955;-73
2023/07/08 06:09:56;;;;;;;;;;;19.30;99.90;;;;;;5004957;28;19931;-73
2023/07/08 06:12:26;;;;;;;;;;;19.50;99.90;;;;;;5029562;28;21491;-75
2023/07/08 06:15:02;;;;;;;;;;;19.10;99.90;;;;;;5045051;28;19971;-72
2023/07/08 06:17:38;;;;;;;;;;;19.80;99.90;;;;;;5000701;28;19929;-76
2023/07/08 06:20:20;;;;;;;;;;;19.90;99.90;;;;;;5044284;28;19970;-73
2023/07/08 06:22:51;;;;;;;;;;;20.10;99.90;;;;;;5028847;28;19924;-72
2023/07/08 06:25:32;;;;;;;;;;;20.30;99.90;;;;;;5028971;28;19928;-72
2023/07/08 06:27:58;;;;;;;;;;;20.50;99.90;;;;;;5013349;28;19929;-70
2023/07/08 06:30:23;;;;;;;;;;;20.60;99.90;;;;;;5013942;28;19947;-73
2023/07/08 06:32:50;;;;;;;;;;;20.80;99.90;;;;;;5014289;28;19929;-73
2023/07/08 06:35:17;;;;;;;;;;;20.90;99.90;;;;;;5013406;28;20384;-71
2023/07/08 06:37:49;;;;;;;;;;;21.10;99.90;;;;;;5015162;28;19929;-73
2023/07/08 06:40:19;;;;;;;;;;;21.30;99.90;;;;;;5032073;28;20016;-70
2023/07/08 06:42:45;;;;;;;;;;;21.40;99.90;;;;;;5018714;28;19932;-68
2023/07/08 06:45:10;;;;;;;;;;;21.50;99.90;;;;;;5019799;28;19948;-70
2023/07/08 06:47:36;;;;;;;;;;;21.70;99.90;;;;;;5017572;28;19925;-69
2023/07/08 06:50:02;;;;;;;;;;;21.90;99.90;;;;;;5000072;28;19967;-69
2023/07/08 06:52:33;;;;;;;;;;;22.00;99.90;;;;;;5017846;28;19929;-69
2023/07/08 06:55:03;;;;;;;;;;;22.20;99.90;;;;;;5013080;28;19980;-71
2023/07/08 06:57:29;;;;;;;;;;;22.30;99.90;;;;;;5033589;28;19929;-71
2023/07/08 06:59:54;;;;;;;;;;;22.50;99.90;;;;;;5021317;28;20273;-71
2023/07/08 07:02:20;;;;;;;;;;;22.70;99.90;;;;;;5018531;28;19928;-70
2023/07/08 07:04:45;;;;;;;;;;;22.90;99.90;;;;;;5035837;28;20382;-71
2023/07/08 07:07:11;;;;;;;;;;;23.00;99.90;;;;;;5002903;28;19925;-71
2023/07/08 07:09:37;;;;;;;;;;;23.20;99.90;;;;;;5035460;28;19928;-72
2023/07/08 07:12:05;;;;;;;;;;;23.40;99.90;;;;;;5002672;28;19921;-72
2023/07/08 07:14:32;;;;;;;;;;;23.50;99.90;;;;;;5020808;28;19924;-70
2023/07/08 07:16:57;;;;;;;;;;;23.70;99.90;;;;;;5020429;28;20434;-69
2023/07/08 07:19:23;;;;;;;;;;;23.80;99.90;;;;;;5009804;28;19936;-75
2023/07/08 07:21:48;;;;;;;;;;;24.00;99.90;;;;;;5013761;28;19928;-72
2023/07/08 07:24:20;;;;;;;;;;;24.10;99.20;;;;;;4985034;28;20501;-74
2023/07/08 07:26:45;;;;;;;;;;;24.30;99.20;;;;;;4984990;28;20063;-72
2023/07/08 07:29:11;;;;;;;;;;;24.50;99.90;;;;;;5012525;28;21301;-69
2023/07/08 07:31:39;;;;;;;;;;;24.80;99.60;;;;;;5017809;28;20011;-68
2023/07/08 07:34:05;;;;;;;;;;;25.00;98.70;;;;;;5044963;28;19925;-69
2023/07/08 07:36:31;;;;;;;;;;;25.30;98.20;;;;;;5017645;28;19924;-67
2023/07/08 07:38:56;;;;;;;;;;;25.50;98.30;;;;;;5029521;28;19928;-68
2023/07/08 07:41:23;;;;;;;;;;;25.60;97.50;;;;;;5016166;28;20067;-73
2023/07/08 07:43:48;;;;;;;;;;;25.90;97.70;;;;;;5031239;28;19933;-70
2023/07/08 07:46:14;;;;;;;;;;;26.00;97.00;;;;;;5031512;28;19925;-71
2023/07/08 07:48:40;;;;;;;;;;;26.20;96.80;;;;;;5014847;28;19932;-70
2023/07/08 07:51:12;;;;;;;;;;;26.40;96.90;;;;;;5015591;28;20005;-71
2023/07/08 07:53:38;;;;;;;;;;;26.50;95.10;;;;;;5014590;28;19942;-71
2023/07/08 07:56:04;;;;;;;;;;;26.70;96.20;;;;;;5014836;28;19925;-71
2023/07/08 07:58:41;;;;;;;;;;;26.80;95.80;;;;;;5015142;28;19921;-69
2023/07/08 08:01:16;;;;;;;;;;;27.00;95.20;;;;;;5030395;28;19931;-68
2023/07/08 08:03:43;;;;;;;;;;;27.10;94.60;;;;;;5043974;28;19925;-71
2023/07/08 08:06:09;;;;;;;;;;;27.30;94.70;;;;;;5015425;28;19946;-68
2023/07/08 08:08:36;;;;;;;;;;;27.50;94.50;;;;;;5016390;28;19960;-72
2023/07/08 08:11:08;;;;;;;;;;;27.60;94.20;;;;;;5017528;28;20383;-70
2023/07/08 08:13:33;;;;;;;;;;;27.70;93.60;;;;;;5030482;28;19925;-70
2023/07/08 08:15:59;;;;;;;;;;;28.00;94.30;;;;;;5027881;28;20319;-71
2023/07/08 08:18:25;;;;;;;;;;;28.10;93.60;;;;;;5012964;28;19936;-70
2023/07/08 08:20:57;;;;;;;;;;;28.30;93.60;;;;;;5028052;28;20462;-70
2023/07/08 08:23:24;;;;;;;;;;;28.50;93.80;;;;;;5010155;28;19925;-72
2023/07/08 08:25:50;;;;;;;;;;;28.80;93.60;;;;;;4999908;28;19925;-70
2023/07/08 08:28:18;;;;;;;;;;;29.10;92.60;;;;;;5012872;28;19936;-72
2023/07/08 08:30:50;;;;;;;;;;;29.30;91.70;;;;;;4999941;28;19930;-72
2023/07/08 08:33:19;;;;;;;;;;;29.40;92.20;;;;;;5011242;28;19966;-69
2023/07/08 08:35:46;;;;;;;;;;;29.50;91.60;;;;;;5029149;28;20002;-72
2023/07/08 08:38:13;;;;;;;;;;;29.70;91.50;;;;;;5016470;28;19960;-71
2023/07/08 08:40:40;;;;;;;;;;;29.90;91.50;;;;;;5016770;28;19925;-69
2023/07/08 08:43:29;;;;;;;;;;;30.10;91.20;;;;;;5023379;28;20345;-69
2023/07/08 08:46:05;;;;;;;;;;;30.20;91.10;;;;;;4995678;28;19931;-71
2023/07/08 08:48:33;;;;;;;;;;;30.50;90.90;;;;;;5018301;28;20336;-69
2023/07/08 08:51:03;;;;;;;;;;;30.70;90.80;;;;;;5031559;28;20796;-71
2023/07/08 08:53:41;;;;;;;;;;;30.80;90.30;;;;;;5014930;28;20768;-72
2023/07/08 08:56:10;;;;;;;;;;;30.70;88.60;;;;;;5020679;28;19917;-70
2023/07/08 08:58:43;;;;;;;;;;;30.80;89.40;;;;;;5021050;28;20337;-69
2023/07/08 09:01:13;;;;;;;;;;;31.00;90.00;;;;;;5031321;28;19931;-70
2023/07/08 09:03:51;;;;;;;;;;;31.10;91.80;;;;;;4999828;28;19932;-72
2023/07/08 09:06:21;;;;;;;;;;;31.30;88.70;;;;;;5020236;28;20378;-71
2023/07/08 09:08:47;;;;;;;;;;;31.50;88.10;;;;;;5018482;28;19940;-70
2023/07/08 09:11:16;;;;;;;;;;;31.50;88.30;;;;;;5025833;28;20325;-71
2023/07/08 09:13:42;;;;;;;;;;;31.70;88.40;;;;;;5034464;28;20027;-71
2023/07/08 09:16:19;;;;;;;;;;;31.90;88.10;;;;;;5020295;28;20342;-72
2023/07/08 09:19:08;;;;;;;;;;;32.10;86.70;;;;;;5031888;28;19974;-71
2023/07/08 09:21:57;;;;;;;;;;;32.30;87.10;;;;;;5017568;28;19968;-71
2023/07/08 09:24:31;;;;;;;;;;;32.40;86.50;;;;;;5026049;28;19924;-71
2023/07/08 09:27:00;;;;;;;;;;;32.50;84.90;;;;;;5002953;28;20441;-71
2023/07/08 09:29:26;;;;;;;;;;;32.50;81.80;;;;;;5033072;28;20337;-71
2023/07/08 09:31:52;;;;;;;;;;;32.40;83.10;;;;;;5016296;28;19925;-73
2023/07/08 09:34:22;;;;;;;;;;;32.50;82.80;;;;;;5020421;28;19925;-72
2023/07/08 09:36:49;;;;;;;;;;;32.50;83.50;;;;;;5031265;28;19947;-71
2023/07/08 09:39:17;;;;;;;;;;;32.50;81.50;;;;;;5032197;28;19924;-70
2023/07/08 09:41:44;;;;;;;;;;;32.60;80.60;;;;;;5029821;28;20639;-71
2023/07/08 09:44:14;;;;;;;;;;;32.60;81.90;;;;;;5018554;28;19925;-71
2023/07/08 09:46:40;;;;;;;;;;;32.80;82.70;;;;;;5035023;28;20656;-70
2023/07/08 09:49:20;;;;;;;;;;;33.00;81.60;;;;;;5030709;28;19932;-76
2023/07/08 09:51:49;;;;;;;;;;;33.00;81.90;;;;;;5028318;28;19939;-73
2023/07/08 09:54:19;;;;;;;;;;;33.10;81.10;;;;;;5045943;28;19935;-74
2023/07/08 09:57:15;;;;;;;;;;;33.20;81.30;;;;;;5020855;28;19932;-76
2023/07/08 09:59:49;;;;;;;;;;;33.30;81.00;;;;;;4984997;28;20020;-74
2023/07/08 10:02:35;;;;;;;;;;;33.40;78.90;;;;;;5017513;28;19929;-75
2023/07/08 10:05:14;;;;;;;;;;;33.50;80.30;;;;;;5023349;28;19979;-75
2023/07/08 10:08:01;;;;;;;;;;;33.60;78.70;;;;;;5032080;28;20122;-75
2023/07/08 10:10:36;;;;;;;;;;;33.80;80.30;;;;;;5020373;28;19924;-73
2023/07/08 10:13:17;;;;;;;;;;;34.10;80.00;;;;;;5025408;28;19963;-73
2023/07/08 10:15:53;;;;;;;;;;;34.30;77.30;;;;;;4978658;28;19926;-74
2023/07/08 10:18:30;;;;;;;;;;;34.50;77.60;;;;;;4978187;28;19969;-70
2023/07/08 10:20:56;;;;;;;;;;;34.80;78.80;;;;;;4978179;28;20380;-71
2023/07/08 10:23:42;;;;;;;;;;;35.00;78.10;;;;;;4978128;28;19929;-70
2023/07/08 10:26:16;;;;;;;;;;;35.10;77.10;;;;;;4976433;28;19938;-71
2023/07/08 10:29:00;;;;;;;;;;;35.20;75.80;;;;;;4958720;28;19992;-73
2023/07/08 10:31:30;;;;;;;;;;;35.10;78.10;;;;;;4960386;28;20379;-70
2023/07/08 10:34:01;;;;;;;;;;;35.10;77.80;;;;;;4977063;28;19969;-70
2023/07/08 10:36:47;;;;;;;;;;;35.10;77.00;;;;;;4960765;28;19937;-70
2023/07/08 10:39:12;;;;;;;;;;;35.20;78.10;;;;;;4996365;28;19926;-69
2023/07/08 10:41:48;;;;;;;;;;;35.20;75.60;;;;;;4966707;28;19971;-70
2023/07/08 10:44:24;;;;;;;;;;;35.20;76.70;;;;;;4977496;28;19922;-71
2023/07/08 10:47:01;;;;;;;;;;;35.30;75.60;;;;;;4995285;28;19933;-70
2023/07/08 10:49:49;;;;;;;;;;;35.40;76.80;;;;;;5025859;28;19985;-69
2023/07/08 10:52:23;;;;;;;;;;;35.40;75.80;;;;;;5018644;28;19932;-70
2023/07/08 10:55:10;;;;;;;;;;;35.50;77.40;;;;;;5019536;28;19925;-69
2023/07/08 10:58:01;;;;;;;;;;;35.50;74.20;;;;;;5015635;28;19932;-69
2023/07/08 11:00:45;;;;;;;;;;;35.50;76.60;;;;;;5005758;28;19927;-68
2023/07/08 11:03:14;;;;;;;;;;;35.60;73.80;;;;;;5005155;28;19920;-69
2023/07/08 11:05:45;;;;;;;;;;;35.80;74.00;;;;;;5038261;28;19972;-68
2023/07/08 11:08:24;;;;;;;;;;;35.90;74.40;;;;;;5023765;28;19999;-68
2023/07/08 11:10:58;;;;;;;;;;;36.00;72.70;;;;;;5001472;28;19935;-69
2023/07/08 11:13:26;;;;;;;;;;;36.00;74.00;;;;;;5049983;28;19924;-69
2023/07/08 11:16:04;;;;;;;;;;;36.00;73.20;;;;;;5018783;28;21276;-68
2023/07/08 11:18:32;;;;;;;;;;;36.00;72.90;;;;;;5035352;28;20054;-70
2023/07/08 11:21:02;;;;;;;;;;;36.00;74.50;;;;;;5022413;28;20382;-67
2023/07/08 11:23:30;;;;;;;;;;;36.00;73.70;;;;;;4994299;28;19935;-68
2023/07/08 11:26:15;;;;;;;;;;;36.10;73.60;;;;;;4998435;28;19975;-69
2023/07/08 11:28:45;;;;;;;;;;;36.10;72.70;;;;;;4981990;28;19928;-70
2023/07/08 11:31:14;;;;;;;;;;;36.20;73.10;;;;;;5015477;28;19964;-72
2023/07/08 11:33:45;;;;;;;;;;;36.40;73.50;;;;;;5014493;28;19935;-69
2023/07/08 11:36:15;;;;;;;;;;;36.40;71.20;;;;;;5017085;28;19935;-69
2023/07/08 11:38:53;;;;;;;;;;;36.20;70.50;;;;;;4999593;28;19921;-69
2023/07/08 11:41:24;;;;;;;;;;;36.10;72.40;;;;;;5016996;28;20568;-69
2023/07/08 11:43:57;;;;;;;;;;;36.40;71.80;;;;;;4986491;28;20011;-69
2023/07/08 11:46:28;;;;;;;;;;;36.60;71.30;;;;;;5003194;28;20000;-70
2023/07/08 11:48:57;;;;;;;;;;;36.70;70.60;;;;;;4997717;28;20149;-70
2023/07/08 11:51:29;;;;;;;;;;;36.70;70.00;;;;;;4998402;28;20872;-70
2023/07/08 11:54:11;;;;;;;;;;;36.60;70.70;;;;;;5015606;28;20036;-69
2023/07/08 11:57:00;;;;;;;;;;;36.60;68.70;;;;;;4996234;28;19936;-77
2023/07/08 11:59:29;;;;;;;;;;;36.70;70.70;;;;;;4997950;28;20051;-69
2023/07/08 12:02:15;;;;;;;;;;;36.90;70.20;;;;;;5045229;28;19948;-71
2023/07/08 12:04:54;;;;;;;;;;;36.90;68.50;;;;;;5016182;28;19986;-68
2023/07/08 12:07:28;;;;;;;;;;;37.10;69.30;;;;;;5017435;28;20015;-69
2023/07/08 12:10:17;;;;;;;;;;;37.20;70.90;;;;;;5017231;28;19939;-69
2023/07/08 12:12:44;;;;;;;;;;;37.30;69.80;;;;;;4994601;28;20008;-69
2023/07/08 12:15:12;;;;;;;;;;;37.20;69.90;;;;;;5050290;28;20007;-70
2023/07/08 12:17:39;;;;;;;;;;;37.00;70.50;;;;;;5032099;28;19944;-69
2023/07/08 12:20:25;;;;;;;;;;;36.90;69.00;;;;;;5020057;28;19932;-71
2023/07/08 12:22:51;;;;;;;;;;;37.00;69.50;;;;;;5004104;28;20302;-70
2023/07/08 12:25:22;;;;;;;;;;;37.10;70.20;;;;;;5018257;28;20015;-70
2023/07/08 12:27:48;;;;;;;;;;;37.20;68.20;;;;;;5031130;28;19924;-69
2023/07/08 12:30:14;;;;;;;;;;;37.30;69.00;;;;;;5003148;28;19924;-74
2023/07/08 12:32:40;;;;;;;;;;;37.40;68.40;;;;;;5031467;28;19924;-69
2023/07/08 12:35:14;;;;;;;;;;;37.40;67.50;;;;;;5023153;28;19971;-70
2023/07/08 12:37:40;;;;;;;;;;;37.50;68.00;;;;;;5047609;28;20007;-75
2023/07/08 12:40:09;;;;;;;;;;;37.50;65.80;;;;;;5021242;28;20015;-74
2023/07/08 12:42:36;;;;;;;;;;;37.60;66.90;;;;;;5018656;28;19924;-73
2023/07/08 12:45:02;;;;;;;;;;;37.80;65.90;;;;;;5006456;28;20351;-72
2023/07/08 12:47:35;;;;;;;;;;;37.70;64.90;;;;;;5007199;28;20043;-72
2023/07/08 12:50:15;;;;;;;;;;;37.70;66.60;;;;;;5020957;28;20357;-71
2023/07/08 12:52:47;;;;;;;;;;;37.70;64.00;;;;;;5050015;28;19971;-70
2023/07/08 12:55:16;;;;;;;;;;;37.60;64.40;;;;;;5019941;28;19924;-70
2023/07/08 12:57:44;;;;;;;;;;;37.50;64.20;;;;;;5017177;28;19928;-72
2023/07/08 13:00:12;;;;;;;;;;;37.60;65.80;;;;;;4990365;28;19929;-74
2023/07/08 13:02:46;;;;;;;;;;;37.70;65.10;;;;;;5007982;28;20504;-72
2023/07/08 13:08:07;;;;;;;;;;;37.70;65.00;;;;;;4994562;28;20423;-72
2023/07/08 13:10:39;;;;;;;;;;;37.90;63.00;;;;;;5012342;28;19970;-72
2023/07/08 13:13:09;;;;;;;;;;;38.00;64.60;;;;;;5006023;28;19929;-72
2023/07/08 13:15:42;;;;;;;;;;;38.10;64.40;;;;;;4967464;28;20087;-72
2023/07/08 13:18:28;;;;;;;;;;;38.40;63.60;;;;;;4989345;28;19922;-72
2023/07/08 13:21:15;;;;;;;;;;;38.50;64.90;;;;;;4944600;28;19941;-73
2023/07/08 13:24:06;;;;;;;;;;;38.50;64.20;;;;;;4962690;28;20368;-73
2023/07/08 13:26:38;;;;;;;;;;;38.60;61.70;;;;;;4950684;28;20299;-72
2023/07/08 13:29:12;;;;;;;;;;;38.20;61.90;;;;;;4933833;28;19942;-72
2023/07/08 13:31:48;;;;;;;;;;;38.50;62.90;;;;;;4949902;28;19926;-72
2023/07/08 13:34:17;;;;;;;;;;;38.60;62.20;;;;;;4951214;28;19926;-72
2023/07/08 13:36:45;;;;;;;;;;;38.50;62.30;;;;;;4953932;28;19932;-73
2023/07/08 13:39:15;;;;;;;;;;;38.40;62.80;;;;;;4997589;28;20028;-72
2023/07/08 13:41:47;;;;;;;;;;;38.30;62.20;;;;;;4967137;28;20000;-73
2023/07/08 13:44:14;;;;;;;;;;;38.30;60.70;;;;;;4998765;28;19936;-73
2023/07/08 13:46:55;;;;;;;;;;;38.40;62.90;;;;;;4982437;28;19933;-72
2023/07/08 13:49:43;;;;;;;;;;;38.40;62.80;;;;;;4982741;28;20164;-73
2023/07/08 13:52:19;;;;;;;;;;;38.30;61.00;;;;;;5014067;28;20337;-72
2023/07/08 13:54:48;;;;;;;;;;;38.00;62.90;;;;;;5004686;28;19939;-72
2023/07/08 13:57:25;;;;;;;;;;;37.70;61.90;;;;;;5054555;28;20011;-72
2023/07/08 13:59:50;;;;;;;;;;;37.80;63.00;;;;;;5028904;28;19936;-72
2023/07/08 14:02:23;;;;;;;;;;;37.80;61.60;;;;;;4981371;28;19929;-72
2023/07/08 14:04:58;;;;;;;;;;;37.80;63.70;;;;;;4997709;28;20020;-71
2023/07/08 14:07:30;;;;;;;;;;;38.20;64.00;;;;;;4983488;28;19971;-71
2023/07/08 14:09:58;;;;;;;;;;;38.30;63.20;;;;;;4994869;28;19925;-72
2023/07/08 14:12:24;;;;;;;;;;;38.50;62.20;;;;;;4987808;28;19971;-72
2023/07/08 14:14:51;;;;;;;;;;;38.40;61.70;;;;;;4987390;28;20008;-72
2023/07/08 14:17:26;;;;;;;;;;;38.40;60.10;;;;;;4995942;28;19921;-72
2023/07/08 14:20:05;;;;;;;;;;;38.50;62.10;;;;;;4996082;28;19929;-72
2023/07/08 14:22:31;;;;;;;;;;;38.70;61.80;;;;;;4967354;28;19977;-72
2023/07/08 14:25:05;;;;;;;;;;;38.80;60.90;;;;;;4979268;28;19973;-73
2023/07/08 14:27:37;;;;;;;;;;;38.90;60.80;;;;;;4966716;28;20091;-72
2023/07/08 14:30:05;;;;;;;;;;;39.00;63.70;;;;;;4969858;28;20457;-72
2023/07/08 14:32:31;;;;;;;;;;;37.90;59.80;;;;;;4971517;28;19929;-72
2023/07/08 14:35:11;;;;;;;;;;;38.30;62.80;;;;;;5037922;28;19936;-72
2023/07/08 14:37:46;;;;;;;;;;;38.20;60.80;;;;;;5039340;28;20019;-72
2023/07/08 14:40:25;;;;;;;;;;;38.10;63.10;;;;;;5043641;28;19966;-73
2023/07/08 14:42:59;;;;;;;;;;;38.10;61.20;;;;;;5021403;28;19940;-73
2023/07/08 14:45:48;;;;;;;;;;;37.80;61.80;;;;;;5038044;28;19921;-72
2023/07/08 14:48:15;;;;;;;;;;;37.50;62.70;;;;;;5042656;28;19920;-72
2023/07/08 14:50:45;;;;;;;;;;;37.40;60.50;;;;;;5021270;28;19932;-73
2023/07/08 14:53:13;;;;;;;;;;;37.30;61.10;;;;;;5025509;28;19924;-72
2023/07/08 14:55:57;;;;;;;;;;;37.20;61.40;;;;;;5039053;28;19928;-72
2023/07/08 14:58:30;;;;;;;;;;;37.00;60.10;;;;;;5020109;28;19931;-71
2023/07/08 15:00:58;;;;;;;;;;;37.10;60.50;;;;;;5038965;28;19928;-71
2023/07/08 15:03:28;;;;;;;;;;;37.20;59.80;;;;;;5025867;28;19924;-72
2023/07/08 15:06:08;;;;;;;;;;;37.30;60.40;;;;;;5009340;28;20004;-72
2023/07/08 15:08:47;;;;;;;;;;;37.20;60.00;;;;;;5022604;28;19970;-72
2023/07/08 15:11:19;;;;;;;;;;;37.30;60.80;;;;;;5027171;28;19932;-72
2023/07/08 15:13:53;;;;;;;;;;;37.20;61.70;;;;;;5004176;28;19947;-72
2023/07/08 15:16:22;;;;;;;;;;;37.20;59.70;;;;;;5037449;28;19939;-72
2023/07/08 15:18:48;;;;;;;;;;;37.10;60.00;;;;;;5020738;28;19924;-72
2023/07/08 15:21:23;;;;;;;;;;;37.20;61.70;;;;;;5020753;28;20051;-73
2023/07/08 15:23:51;;;;;;;;;;;37.10;60.60;;;;;;5015705;28;20173;-72
2023/07/08 15:26:18;;;;;;;;;;;37.10;62.90;;;;;;5013454;28;19925;-72
2023/07/08 15:28:50;;;;;;;;;;;36.10;59.90;;;;;;5015077;28;19921;-72
2023/07/08 15:31:38;;;;;;;;;;;36.70;59.80;;;;;;4989565;28;19994;-72
2023/07/08 15:34:20;;;;;;;;;;;36.70;60.80;;;;;;5012426;28;20016;-73
2023/07/08 15:36:53;;;;;;;;;;;36.70;62.50;;;;;;4990135;28;20481;-72
2023/07/08 15:39:42;;;;;;;;;;;36.40;61.30;;;;;;5013486;28;19925;-73
2023/07/08 15:42:31;;;;;;;;;;;36.20;61.10;;;;;;5000555;28;20462;-72
2023/07/08 15:45:15;;;;;;;;;;;36.60;61.30;;;;;;5014860;28;19983;-72
2023/07/08 15:47:43;;;;;;;;;;;36.30;61.40;;;;;;5014433;28;19925;-71
2023/07/08 15:50:10;;;;;;;;;;;36.40;62.20;;;;;;5004531;28;20426;-71
2023/07/08 15:52:52;;;;;;;;;;;36.50;62.30;;;;;;5014543;28;19936;-73
2023/07/08 15:55:20;;;;;;;;;;;36.50;62.00;;;;;;5027293;28;19931;-74
2023/07/08 15:58:12;;;;;;;;;;;36.40;61.10;;;;;;5051654;28;20419;-73
2023/07/08 16:00:38;;;;;;;;;;;36.30;62.10;;;;;;5018014;28;20063;-73
2023/07/08 16:03:14;;;;;;;;;;;36.40;61.80;;;;;;5022265;28;19983;-73
2023/07/08 16:05:40;;;;;;;;;;;36.40;61.40;;;;;;5003968;28;19925;-73
2023/07/08 16:08:05;;;;;;;;;;;36.40;61.50;;;;;;5020221;28;19948;-73
2023/07/08 16:10:38;;;;;;;;;;;35.90;61.80;;;;;;5035752;28;19943;-71
2023/07/08 16:13:05;;;;;;;;;;;36.30;62.90;;;;;;5026245;28;20015;-71
2023/07/08 16:15:40;;;;;;;;;;;36.30;63.80;;;;;;5035430;28;19929;-72
2023/07/08 16:18:16;;;;;;;;;;;36.20;63.10;;;;;;5036611;28;20039;-72
2023/07/08 16:20:47;;;;;;;;;;;36.10;62.70;;;;;;5009987;28;19925;-72
2023/07/08 16:23:19;;;;;;;;;;;36.10;62.70;;;;;;5026136;28;20414;-72
2023/07/08 16:26:01;;;;;;;;;;;36.20;63.20;;;;;;5021091;28;20121;-71
2023/07/08 16:28:33;;;;;;;;;;;35.80;62.90;;;;;;5018851;28;19921;-72
2023/07/08 16:30:59;;;;;;;;;;;35.60;64.00;;;;;;5003151;28;19928;-71
2023/07/08 16:33:39;;;;;;;;;;;35.40;64.40;;;;;;5010084;28;19927;-72
2023/07/08 16:36:29;;;;;;;;;;;35.20;65.30;;;;;;5024780;28;20262;-72
2023/07/08 16:38:59;;;;;;;;;;;35.00;65.20;;;;;;5010100;28;20012;-73
2023/07/08 16:41:30;;;;;;;;;;;34.80;66.10;;;;;;5025350;28;19928;-72
2023/07/08 16:44:23;;;;;;;;;;;34.70;66.90;;;;;;5025351;28;19974;-72
2023/07/08 16:46:52;;;;;;;;;;;34.50;66.60;;;;;;5022862;28;19934;-72
2023/07/08 16:49:19;;;;;;;;;;;34.40;66.50;;;;;;5019415;28;19925;-71
2023/07/08 16:51:51;;;;;;;;;;;34.30;66.20;;;;;;5017778;28;19975;-71
2023/07/08 16:54:28;;;;;;;;;;;34.20;66.80;;;;;;5036401;28;19974;-72
2023/07/08 16:56:54;;;;;;;;;;;34.10;66.70;;;;;;5024514;28;19928;-71